sensor_id;sensor_type;location;lat;lon;timestamp;pressure;altitude;pressure_sealevel;temperature;humidity
45523;BME280;31254;51.680;5.394;2022-12-29T00:00:59;100058.66;;;11.21;97.46
45523;BME280;31254;51.680;5.394;2022-12-29T00:03:26;100053.53;;;11.18;97.37
45523;BME280;31254;51.680;5.394;2022-12-29T00:05:56;100057.09;;;11.27;97.22
45523;BME280;31254;51.680;5.394;2022-12-29T00:08:23;100055.22;;;11.27;97.20
45523;BME280;31254;51.680;5.394;2022-12-29T00:11:14;100046.34;;;11.25;97.10
45523;BME280;31254;51.680;5.394;2022-12-29T00:13:41;100052.66;;;11.26;97.09
45523;BME280;31254;51.680;5.394;2022-12-29T00:16:27;100042.75;;;11.25;97.14
45523;BME280;31254;51.680;5.394;2022-12-29T00:18:54;100036.97;;;11.20;97.36
45523;BME280;31254;51.680;5.394;2022-12-29T00:21:24;100032.03;;;11.23;97.24
45523;BME280;31254;51.680;5.394;2022-12-29T00:24:13;100031.34;;;11.21;97.66
45523;BME280;31254;51.680;5.394;2022-12-29T00:26:55;100019.56;;;11.21;97.20
45523;BME280;31254;51.680;5.394;2022-12-29T00:29:43;100024.16;;;11.20;97.38
45523;BME280;31254;51.680;5.394;2022-12-29T00:32:30;100021.09;;;11.23;97.09
45523;BME280;31254;51.680;5.394;2022-12-29T00:35:30;99995.88;;;11.13;97.24
45523;BME280;31254;51.680;5.394;2022-12-29T00:38:01;100008.63;;;11.21;96.76
45523;BME280;31254;51.680;5.394;2022-12-29T00:40:50;99988.19;;;11.16;97.01
45523;BME280;31254;51.680;5.394;2022-12-29T00:43:38;99993.16;;;11.13;96.93
45523;BME280;31254;51.680;5.394;2022-12-29T00:46:25;99982.25;;;11.05;97.23
45523;BME280;31254;51.680;5.394;2022-12-29T00:48:52;99970.63;;;11.03;97.36
45523;BME280;31254;51.680;5.394;2022-12-29T00:51:37;99980.56;;;10.95;97.84
45523;BME280;31254;51.680;5.394;2022-12-29T00:54:04;99995.03;;;10.96;97.76
45523;BME280;31254;51.680;5.394;2022-12-29T00:56:30;99984.31;;;10.94;97.65
45523;BME280;31254;51.680;5.394;2022-12-29T00:59:05;99978.50;;;10.97;97.40
45523;BME280;31254;51.680;5.394;2022-12-29T01:01:33;99989.06;;;11.01;97.51
45523;BME280;31254;51.680;5.394;2022-12-29T01:04:00;99973.72;;;11.00;97.76
45523;BME280;31254;51.680;5.394;2022-12-29T01:06:29;99966.56;;;10.98;97.70
45523;BME280;31254;51.680;5.394;2022-12-29T01:08:56;99965.53;;;11.00;97.77
45523;BME280;31254;51.680;5.394;2022-12-29T01:11:41;99954.94;;;10.96;97.98
45523;BME280;31254;51.680;5.394;2022-12-29T01:14:08;99944.94;;;10.89;98.14
45523;BME280;31254;51.680;5.394;2022-12-29T01:16:35;99946.78;;;10.88;98.15
45523;BME280;31254;51.680;5.394;2022-12-29T01:19:05;99955.16;;;10.95;98.21
45523;BME280;31254;51.680;5.394;2022-12-29T01:21:32;99953.44;;;10.94;98.21
45523;BME280;31254;51.680;5.394;2022-12-29T01:24:02;99958.72;;;10.95;98.09
45523;BME280;31254;51.680;5.394;2022-12-29T01:26:28;99950.56;;;10.87;98.01
45523;BME280;31254;51.680;5.394;2022-12-29T01:28:59;99956.31;;;11.01;98.09
45523;BME280;31254;51.680;5.394;2022-12-29T01:31:25;99944.75;;;10.90;98.45
45523;BME280;31254;51.680;5.394;2022-12-29T01:33:52;99937.06;;;10.94;98.43
45523;BME280;31254;51.680;5.394;2022-12-29T01:36:18;99945.44;;;10.92;99.01
45523;BME280;31254;51.680;5.394;2022-12-29T01:38:48;99947.13;;;10.93;99.11
45523;BME280;31254;51.680;5.394;2022-12-29T01:41:15;99934.84;;;10.97;98.63
45523;BME280;31254;51.680;5.394;2022-12-29T01:43:47;99931.25;;;11.05;98.45
45523;BME280;31254;51.680;5.394;2022-12-29T01:48:42;99933.97;;;11.05;98.52
45523;BME280;31254;51.680;5.394;2022-12-29T01:51:09;99935.13;;;11.11;98.46
45523;BME280;31254;51.680;5.394;2022-12-29T01:53:36;99933.63;;;11.08;98.24
45523;BME280;31254;51.680;5.394;2022-12-29T01:56:06;99944.50;;;11.16;97.91
45523;BME280;31254;51.680;5.394;2022-12-29T01:58:38;99948.56;;;11.21;97.98
45523;BME280;31254;51.680;5.394;2022-12-29T02:01:06;99938.34;;;11.23;97.88
45523;BME280;31254;51.680;5.394;2022-12-29T02:03:40;99924.72;;;11.14;97.41
45523;BME280;31254;51.680;5.394;2022-12-29T02:06:18;99940.56;;;11.27;97.48
45523;BME280;31254;51.680;5.394;2022-12-29T02:08:50;99939.50;;;11.28;97.31
45523;BME280;31254;51.680;5.394;2022-12-29T02:11:19;99923.00;;;11.22;97.24
45523;BME280;31254;51.680;5.394;2022-12-29T02:13:46;99948.88;;;11.34;97.10
45523;BME280;31254;51.680;5.394;2022-12-29T02:18:55;99932.66;;;11.41;96.54
45523;BME280;31254;51.680;5.394;2022-12-29T02:30:03;99946.75;;;11.52;95.81
45523;BME280;31254;51.680;5.394;2022-12-29T02:32:54;99944.19;;;11.51;95.59
45523;BME280;31254;51.680;5.394;2022-12-29T02:41:25;99924.91;;;11.52;95.13
45523;BME280;31254;51.680;5.394;2022-12-29T02:44:01;99933.56;;;11.56;95.07
45523;BME280;31254;51.680;5.394;2022-12-29T02:47:14;99941.78;;;11.56;95.15
45523;BME280;31254;51.680;5.394;2022-12-29T02:52:42;99943.47;;;11.57;94.64
45523;BME280;31254;51.680;5.394;2022-12-29T02:55:11;99920.63;;;11.50;94.63
45523;BME280;31254;51.680;5.394;2022-12-29T02:57:40;99929.34;;;11.53;94.53
45523;BME280;31254;51.680;5.394;2022-12-29T03:00:24;99928.13;;;11.56;94.53
45523;BME280;31254;51.680;5.394;2022-12-29T03:02:58;99937.84;;;11.59;94.42
45523;BME280;31254;51.680;5.394;2022-12-29T03:08:37;99927.75;;;11.59;94.38
45523;BME280;31254;51.680;5.394;2022-12-29T03:11:09;99924.53;;;11.56;94.25
45523;BME280;31254;51.680;5.394;2022-12-29T03:17:09;99925.91;;;11.51;94.46
45523;BME280;31254;51.680;5.394;2022-12-29T03:19:49;99945.56;;;11.55;94.42
45523;BME280;31254;51.680;5.394;2022-12-29T03:22:22;99921.84;;;11.47;94.09
45523;BME280;31254;51.680;5.394;2022-12-29T03:25:10;99924.72;;;11.54;94.31
45523;BME280;31254;51.680;5.394;2022-12-29T03:27:45;99923.19;;;11.51;93.91
45523;BME280;31254;51.680;5.394;2022-12-29T03:30:13;99930.00;;;11.56;94.19
45523;BME280;31254;51.680;5.394;2022-12-29T03:32:54;99929.88;;;11.49;94.03
45523;BME280;31254;51.680;5.394;2022-12-29T03:35:25;99921.38;;;11.44;94.10
45523;BME280;31254;51.680;5.394;2022-12-29T03:38:00;99936.53;;;11.46;94.19
45523;BME280;31254;51.680;5.394;2022-12-29T03:40:33;99928.69;;;11.43;94.10
45523;BME280;31254;51.680;5.394;2022-12-29T03:43:02;99917.28;;;11.40;93.89
45523;BME280;31254;51.680;5.394;2022-12-29T03:45:29;99921.91;;;11.39;94.37
45523;BME280;31254;51.680;5.394;2022-12-29T03:47:58;99924.13;;;11.36;94.40
45523;BME280;31254;51.680;5.394;2022-12-29T03:50:24;99924.63;;;11.39;94.10
45523;BME280;31254;51.680;5.394;2022-12-29T03:52:51;99913.22;;;11.36;93.85
45523;BME280;31254;51.680;5.394;2022-12-29T03:55:17;99923.78;;;11.39;94.02
45523;BME280;31254;51.680;5.394;2022-12-29T03:57:44;99911.69;;;11.33;94.04
45523;BME280;31254;51.680;5.394;2022-12-29T04:00:11;99925.16;;;11.34;93.95
45523;BME280;31254;51.680;5.394;2022-12-29T04:02:38;99948.38;;;11.39;94.01
45523;BME280;31254;51.680;5.394;2022-12-29T04:05:08;99929.03;;;11.40;93.63
45523;BME280;31254;51.680;5.394;2022-12-29T04:07:34;99932.47;;;11.42;93.60
45523;BME280;31254;51.680;5.394;2022-12-29T04:10:01;99938.09;;;11.41;93.34
45523;BME280;31254;51.680;5.394;2022-12-29T04:12:28;99932.16;;;11.37;93.65
45523;BME280;31254;51.680;5.394;2022-12-29T04:14:54;99928.69;;;11.43;93.44
45523;BME280;31254;51.680;5.394;2022-12-29T04:17:21;99940.31;;;11.45;93.10
45523;BME280;31254;51.680;5.394;2022-12-29T04:19:48;99943.56;;;11.41;93.24
45523;BME280;31254;51.680;5.394;2022-12-29T04:22:14;99932.66;;;11.41;93.39
45523;BME280;31254;51.680;5.394;2022-12-29T04:24:43;99928.19;;;11.40;93.29
45523;BME280;31254;51.680;5.394;2022-12-29T04:27:10;99941.31;;;11.44;93.26
45523;BME280;31254;51.680;5.394;2022-12-29T04:29:39;99918.84;;;11.34;93.28
45523;BME280;31254;51.680;5.394;2022-12-29T04:32:05;99941.50;;;11.43;93.19
45523;BME280;31254;51.680;5.394;2022-12-29T04:34:32;99938.97;;;11.33;93.23
45523;BME280;31254;51.680;5.394;2022-12-29T04:36:59;99933.00;;;11.38;93.05
45523;BME280;31254;51.680;5.394;2022-12-29T04:39:25;99944.94;;;11.37;93.18
45523;BME280;31254;51.680;5.394;2022-12-29T04:41:52;99927.88;;;11.34;93.04
45523;BME280;31254;51.680;5.394;2022-12-29T04:44:19;99931.63;;;11.33;92.76
45523;BME280;31254;51.680;5.394;2022-12-29T04:46:47;99926.69;;;11.29;92.85
45523;BME280;31254;51.680;5.394;2022-12-29T04:49:14;99953.13;;;11.37;92.57
45523;BME280;31254;51.680;5.394;2022-12-29T04:51:41;99948.72;;;11.36;92.58
45523;BME280;31254;51.680;5.394;2022-12-29T04:54:10;99962.91;;;11.31;92.60
45523;BME280;31254;51.680;5.394;2022-12-29T04:56:36;99985.41;;;11.33;92.49
45523;BME280;31254;51.680;5.394;2022-12-29T04:59:03;99978.56;;;11.29;92.40
45523;BME280;31254;51.680;5.394;2022-12-29T05:01:32;99966.53;;;11.15;92.75
45523;BME280;31254;51.680;5.394;2022-12-29T05:03:59;99983.75;;;11.15;92.91
45523;BME280;31254;51.680;5.394;2022-12-29T05:06:26;99975.09;;;10.95;93.28
45523;BME280;31254;51.680;5.394;2022-12-29T05:08:55;99985.31;;;10.85;93.53
45523;BME280;31254;51.680;5.394;2022-12-29T05:11:21;99993.50;;;10.85;93.70
45523;BME280;31254;51.680;5.394;2022-12-29T05:13:48;100007.16;;;10.77;93.95
45523;BME280;31254;51.680;5.394;2022-12-29T05:16:14;99994.03;;;10.64;93.78
45523;BME280;31254;51.680;5.394;2022-12-29T05:18:41;100004.94;;;10.64;93.91
45523;BME280;31254;51.680;5.394;2022-12-29T05:21:08;100021.69;;;10.77;93.47
45523;BME280;31254;51.680;5.394;2022-12-29T05:23:34;100006.31;;;10.76;92.96
45523;BME280;31254;51.680;5.394;2022-12-29T05:26:01;100017.56;;;10.82;92.53
45523;BME280;31254;51.680;5.394;2022-12-29T05:28:30;100010.59;;;10.79;92.42
45523;BME280;31254;51.680;5.394;2022-12-29T05:30:56;100005.31;;;10.77;92.03
45523;BME280;31254;51.680;5.394;2022-12-29T05:33:25;100027.13;;;10.86;91.91
45523;BME280;31254;51.680;5.394;2022-12-29T05:35:54;100024.41;;;10.86;92.07
45523;BME280;31254;51.680;5.394;2022-12-29T05:38:21;100009.56;;;10.80;91.75
45523;BME280;31254;51.680;5.394;2022-12-29T05:40:47;100025.41;;;10.85;91.86
45523;BME280;31254;51.680;5.394;2022-12-29T05:43:14;100016.91;;;10.79;91.46
45523;BME280;31254;51.680;5.394;2022-12-29T05:45:40;100026.97;;;10.79;91.33
45523;BME280;31254;51.680;5.394;2022-12-29T05:48:07;100036.00;;;10.79;91.13
45523;BME280;31254;51.680;5.394;2022-12-29T05:50:36;100036.16;;;10.78;91.12
45523;BME280;31254;51.680;5.394;2022-12-29T05:53:03;100035.81;;;10.81;90.93
45523;BME280;31254;51.680;5.394;2022-12-29T05:55:29;100040.78;;;10.77;90.73
45523;BME280;31254;51.680;5.394;2022-12-29T05:57:56;100029.00;;;10.77;90.67
45523;BME280;31254;51.680;5.394;2022-12-29T06:00:22;100040.44;;;10.72;90.57
45523;BME280;31254;51.680;5.394;2022-12-29T06:02:49;100043.69;;;10.76;90.69
45523;BME280;31254;51.680;5.394;2022-12-29T06:05:16;100025.75;;;10.65;90.38
45523;BME280;31254;51.680;5.394;2022-12-29T06:07:46;100033.44;;;10.61;90.61
45523;BME280;31254;51.680;5.394;2022-12-29T06:10:15;100016.22;;;10.53;90.48
45523;BME280;31254;51.680;5.394;2022-12-29T06:12:41;100040.59;;;10.54;90.87
45523;BME280;31254;51.680;5.394;2022-12-29T06:15:11;100025.25;;;10.53;90.55
45523;BME280;31254;51.680;5.394;2022-12-29T06:17:37;100018.09;;;10.52;90.28
45523;BME280;31254;51.680;5.394;2022-12-29T06:20:04;100018.44;;;10.57;89.93
45523;BME280;31254;51.680;5.394;2022-12-29T06:22:33;100019.13;;;10.59;89.72
45523;BME280;31254;51.680;5.394;2022-12-29T06:25:02;100039.56;;;10.64;89.97
45523;BME280;31254;51.680;5.394;2022-12-29T06:27:33;100020.47;;;10.64;89.54
45523;BME280;31254;51.680;5.394;2022-12-29T06:29:59;100016.91;;;10.47;89.77
45523;BME280;31254;51.680;5.394;2022-12-29T06:32:26;100023.38;;;10.46;90.00
45523;BME280;31254;51.680;5.394;2022-12-29T06:34:55;100025.09;;;10.47;89.85
45523;BME280;31254;51.680;5.394;2022-12-29T06:37:21;100022.03;;;10.41;89.75
45523;BME280;31254;51.680;5.394;2022-12-29T06:39:48;100011.19;;;10.23;89.78
45523;BME280;31254;51.680;5.394;2022-12-29T06:42:17;100033.03;;;10.32;89.95
45523;BME280;31254;51.680;5.394;2022-12-29T06:44:46;100047.91;;;10.37;89.42
45523;BME280;31254;51.680;5.394;2022-12-29T06:47:12;100051.81;;;10.43;89.39
45523;BME280;31254;51.680;5.394;2022-12-29T06:49:41;100018.75;;;10.46;88.95
45523;BME280;31254;51.680;5.394;2022-12-29T06:52:08;100041.97;;;10.58;88.41
45523;BME280;31254;51.680;5.394;2022-12-29T06:54:41;100042.28;;;10.64;88.08
45523;BME280;31254;51.680;5.394;2022-12-29T06:57:10;100048.09;;;10.69;88.12
45523;BME280;31254;51.680;5.394;2022-12-29T06:59:41;100043.50;;;10.69;87.59
45523;BME280;31254;51.680;5.394;2022-12-29T07:02:11;100044.34;;;10.70;87.83
45523;BME280;31254;51.680;5.394;2022-12-29T07:04:38;100044.84;;;10.73;87.81
45523;BME280;31254;51.680;5.394;2022-12-29T07:07:04;100039.22;;;10.67;87.89
45523;BME280;31254;51.680;5.394;2022-12-29T07:09:31;100063.44;;;10.78;87.74
45523;BME280;31254;51.680;5.394;2022-12-29T07:11:58;100053.38;;;10.78;87.78
45523;BME280;31254;51.680;5.394;2022-12-29T07:14:24;100068.72;;;10.79;87.47
45523;BME280;31254;51.680;5.394;2022-12-29T07:16:53;100066.84;;;10.80;87.66
45523;BME280;31254;51.680;5.394;2022-12-29T07:19:20;100067.72;;;10.81;87.37
45523;BME280;31254;51.680;5.394;2022-12-29T07:21:46;100069.25;;;10.83;87.17
45523;BME280;31254;51.680;5.394;2022-12-29T07:24:13;100068.22;;;10.84;87.08
45523;BME280;31254;51.680;5.394;2022-12-29T07:26:40;100063.78;;;10.75;87.15
45523;BME280;31254;51.680;5.394;2022-12-29T07:29:08;100084.25;;;10.87;86.51
45523;BME280;31254;51.680;5.394;2022-12-29T07:31:34;100071.63;;;10.78;86.54
45523;BME280;31254;51.680;5.394;2022-12-29T07:34:01;100086.66;;;10.74;86.76
45523;BME280;31254;51.680;5.394;2022-12-29T07:36:29;100099.94;;;10.77;86.35
45523;BME280;31254;51.680;5.394;2022-12-29T07:39:00;100099.25;;;10.67;86.70
45523;BME280;31254;51.680;5.394;2022-12-29T07:41:27;100093.78;;;10.58;86.67
45523;BME280;31254;51.680;5.394;2022-12-29T07:43:53;100068.72;;;10.38;87.23
45523;BME280;31254;51.680;5.394;2022-12-29T07:46:20;100084.38;;;10.45;86.95
45523;BME280;31254;51.680;5.394;2022-12-29T07:49:09;100092.75;;;10.51;86.42
45523;BME280;31254;51.680;5.394;2022-12-29T07:51:38;100092.59;;;10.53;86.10
45523;BME280;31254;51.680;5.394;2022-12-29T07:54:05;100108.44;;;10.57;85.72
45523;BME280;31254;51.680;5.394;2022-12-29T07:56:31;100107.41;;;10.58;85.39
45523;BME280;31254;51.680;5.394;2022-12-29T07:58:58;100112.53;;;10.61;85.47
45523;BME280;31254;51.680;5.394;2022-12-29T08:01:24;100109.31;;;10.66;85.04
45523;BME280;31254;51.680;5.394;2022-12-29T08:03:51;100114.94;;;10.65;85.17
45523;BME280;31254;51.680;5.394;2022-12-29T08:06:23;100114.94;;;10.65;85.56
45523;BME280;31254;51.680;5.394;2022-12-29T08:08:52;100114.91;;;10.56;85.33
45523;BME280;31254;51.680;5.394;2022-12-29T08:11:18;100130.56;;;10.54;85.20
45523;BME280;31254;51.680;5.394;2022-12-29T08:13:45;100128.53;;;10.48;85.35
45523;BME280;31254;51.680;5.394;2022-12-29T08:16:12;100115.56;;;10.34;85.42
45523;BME280;31254;51.680;5.394;2022-12-29T08:18:41;100126.66;;;10.49;85.96
45523;BME280;31254;51.680;5.394;2022-12-29T08:21:08;100128.72;;;10.47;85.25
45523;BME280;31254;51.680;5.394;2022-12-29T08:23:34;100113.34;;;10.46;85.59
45523;BME280;31254;51.680;5.394;2022-12-29T08:26:07;100109.63;;;10.47;85.44
45523;BME280;31254;51.680;5.394;2022-12-29T08:28:33;100118.47;;;10.49;85.12
45523;BME280;31254;51.680;5.394;2022-12-29T08:31:01;100122.78;;;10.59;85.18
45523;BME280;31254;51.680;5.394;2022-12-29T08:33:28;100130.25;;;10.66;84.79
45523;BME280;31254;51.680;5.394;2022-12-29T08:36:04;100134.72;;;10.67;84.84
45523;BME280;31254;51.680;5.394;2022-12-29T08:38:32;100114.25;;;10.71;84.79
45523;BME280;31254;51.680;5.394;2022-12-29T08:40:59;100116.13;;;10.70;84.43
45523;BME280;31254;51.680;5.394;2022-12-29T08:43:27;100112.56;;;10.78;83.87
45523;BME280;31254;51.680;5.394;2022-12-29T08:45:54;100114.28;;;10.79;84.16
45523;BME280;31254;51.680;5.394;2022-12-29T08:48:28;100104.72;;;10.75;83.96
45523;BME280;31254;51.680;5.394;2022-12-29T08:50:57;100116.50;;;10.84;83.75
45523;BME280;31254;51.680;5.394;2022-12-29T08:53:26;100115.28;;;10.86;83.81
45523;BME280;31254;51.680;5.394;2022-12-29T08:56:00;100113.41;;;10.78;83.33
45523;BME280;31254;51.680;5.394;2022-12-29T08:58:31;100116.84;;;10.89;83.50
45523;BME280;31254;51.680;5.394;2022-12-29T09:00:59;100123.81;;;10.91;83.28
45523;BME280;31254;51.680;5.394;2022-12-29T09:03:25;100111.53;;;10.87;83.15
45523;BME280;31254;51.680;5.394;2022-12-29T09:06:13;100123.97;;;10.90;82.91
45523;BME280;31254;51.680;5.394;2022-12-29T09:08:43;100121.78;;;10.93;82.99
45523;BME280;31254;51.680;5.394;2022-12-29T09:11:21;100129.44;;;10.98;82.67
45523;BME280;31254;51.680;5.394;2022-12-29T09:13:48;100129.09;;;11.01;82.49
45523;BME280;31254;51.680;5.394;2022-12-29T09:16:16;100125.53;;;10.92;82.27
45523;BME280;31254;51.680;5.394;2022-12-29T09:18:45;100137.13;;;11.03;82.15
45523;BME280;31254;51.680;5.394;2022-12-29T09:21:12;100131.00;;;11.01;81.98
45523;BME280;31254;51.680;5.394;2022-12-29T09:23:39;100144.97;;;11.06;81.80
45523;BME280;31254;51.680;5.394;2022-12-29T09:26:07;100140.03;;;11.09;81.96
45523;BME280;31254;51.680;5.394;2022-12-29T09:28:35;100129.59;;;10.96;81.99
45523;BME280;31254;51.680;5.394;2022-12-29T09:31:03;100161.19;;;11.07;82.29
45523;BME280;31254;51.680;5.394;2022-12-29T09:33:30;100139.00;;;10.94;82.00
45523;BME280;31254;51.680;5.394;2022-12-29T09:35:59;100169.72;;;11.04;82.59
45523;BME280;31254;51.680;5.394;2022-12-29T09:38:27;100161.84;;;11.01;82.48
45523;BME280;31254;51.680;5.394;2022-12-29T09:40:58;100174.50;;;11.02;82.34
45523;BME280;31254;51.680;5.394;2022-12-29T09:43:42;100181.84;;;11.02;82.96
45523;BME280;31254;51.680;5.394;2022-12-29T09:46:21;100185.22;;;10.95;83.55
45523;BME280;31254;51.680;5.394;2022-12-29T09:49:04;100191.69;;;10.86;83.61
45523;BME280;31254;51.680;5.394;2022-12-29T09:51:37;100195.63;;;10.92;83.45
45523;BME280;31254;51.680;5.394;2022-12-29T09:54:46;100215.75;;;10.91;83.59
45523;BME280;31254;51.680;5.394;2022-12-29T10:00:10;100220.09;;;10.67;84.59
45523;BME280;31254;51.680;5.394;2022-12-29T10:02:43;100245.00;;;10.64;84.94
45523;BME280;31254;51.680;5.394;2022-12-29T10:05:20;100237.63;;;10.48;85.49
45523;BME280;31254;51.680;5.394;2022-12-29T10:10:26;100261.63;;;10.45;85.67
45523;BME280;31254;51.680;5.394;2022-12-29T10:13:06;100241.81;;;10.34;85.95
45523;BME280;31254;51.680;5.394;2022-12-29T10:16:18;100273.56;;;10.43;86.00
45523;BME280;31254;51.680;5.394;2022-12-29T10:24:21;100268.78;;;10.46;85.99
45523;BME280;31254;51.680;5.394;2022-12-29T10:26:51;100280.53;;;10.46;86.28
45523;BME280;31254;51.680;5.394;2022-12-29T10:29:24;100276.78;;;10.39;86.50
45523;BME280;31254;51.680;5.394;2022-12-29T10:32:25;100282.56;;;10.36;86.60
45523;BME280;31254;51.680;5.394;2022-12-29T10:34:56;100284.63;;;10.42;86.33
45523;BME280;31254;51.680;5.394;2022-12-29T10:41:11;100294.41;;;10.53;85.80
45523;BME280;31254;51.680;5.394;2022-12-29T10:46:17;100304.75;;;10.49;86.55
45523;BME280;31254;51.680;5.394;2022-12-29T10:48:44;100312.94;;;10.49;86.87
45523;BME280;31254;51.680;5.394;2022-12-29T10:51:35;100320.28;;;10.49;86.93
45523;BME280;31254;51.680;5.394;2022-12-29T10:54:06;100312.78;;;10.51;86.98
45523;BME280;31254;51.680;5.394;2022-12-29T10:56:40;100325.13;;;10.63;86.62
45523;BME280;31254;51.680;5.394;2022-12-29T11:04:43;100315.09;;;10.72;86.17
45523;BME280;31254;51.680;5.394;2022-12-29T11:07:16;100330.63;;;10.71;86.37
45523;BME280;31254;51.680;5.394;2022-12-29T11:09:53;100330.63;;;10.71;86.36
45523;BME280;31254;51.680;5.394;2022-12-29T11:12:27;100332.19;;;10.74;86.30
45523;BME280;31254;51.680;5.394;2022-12-29T11:17:53;100334.19;;;10.72;86.65
45523;BME280;31254;51.680;5.394;2022-12-29T11:20:38;100338.97;;;10.70;86.49
45523;BME280;31254;51.680;5.394;2022-12-29T11:28:41;100344.06;;;10.65;86.70
45523;BME280;31254;51.680;5.394;2022-12-29T11:31:09;100349.69;;;10.63;86.87
45523;BME280;31254;51.680;5.394;2022-12-29T11:33:38;100347.28;;;10.60;86.90
45523;BME280;31254;51.680;5.394;2022-12-29T11:36:11;100356.63;;;10.57;86.82
45523;BME280;31254;51.680;5.394;2022-12-29T11:38:42;100360.38;;;10.56;86.70
45523;BME280;31254;51.680;5.394;2022-12-29T11:41:18;100359.75;;;10.63;86.58
45523;BME280;31254;51.680;5.394;2022-12-29T11:43:46;100359.56;;;10.64;86.21
45523;BME280;31254;51.680;5.394;2022-12-29T11:46:20;100375.75;;;10.66;86.21
45523;BME280;31254;51.680;5.394;2022-12-29T11:48:52;100382.63;;;10.70;86.21
45523;BME280;31254;51.680;5.394;2022-12-29T11:51:39;100388.16;;;10.86;85.45
45523;BME280;31254;51.680;5.394;2022-12-29T11:54:16;100375.03;;;10.90;84.99
45523;BME280;31254;51.680;5.394;2022-12-29T11:56:45;100387.19;;;10.95;85.18
45523;BME280;31254;51.680;5.394;2022-12-29T11:59:36;100387.19;;;10.95;84.98
45523;BME280;31254;51.680;5.394;2022-12-29T12:04:49;100400.44;;;10.82;85.53
45523;BME280;31254;51.680;5.394;2022-12-29T12:07:23;100389.00;;;10.87;85.66
45523;BME280;31254;51.680;5.394;2022-12-29T12:10:01;100379.88;;;10.70;85.70
45523;BME280;31254;51.680;5.394;2022-12-29T12:13:08;100412.88;;;10.85;86.01
45523;BME280;31254;51.680;5.394;2022-12-29T12:15:45;100393.28;;;10.89;85.44
45523;BME280;31254;51.680;5.394;2022-12-29T12:18:36;100410.06;;;11.03;85.10
45523;BME280;31254;51.680;5.394;2022-12-29T12:21:10;100401.56;;;11.06;84.98
45523;BME280;31254;51.680;5.394;2022-12-29T12:26:42;100391.13;;;11.01;85.35
45523;BME280;31254;51.680;5.394;2022-12-29T12:29:24;100410.94;;;11.03;85.15
45523;BME280;31254;51.680;5.394;2022-12-29T12:32:16;100402.06;;;11.09;84.84
45523;BME280;31254;51.680;5.394;2022-12-29T12:34:45;100400.25;;;11.18;84.76
45523;BME280;31254;51.680;5.394;2022-12-29T12:45:27;100405.75;;;11.26;84.44
45523;BME280;31254;51.680;5.394;2022-12-29T12:48:17;100421.78;;;11.29;84.29
45523;BME280;31254;51.680;5.394;2022-12-29T13:05:28;100434.75;;;11.27;83.63
45523;BME280;31254;51.680;5.394;2022-12-29T13:30:01;100468.44;;;11.02;84.58
45523;BME280;31254;51.680;5.394;2022-12-29T13:37:58;100469.44;;;10.74;84.77
45523;BME280;31254;51.680;5.394;2022-12-29T13:40:32;100470.25;;;10.67;84.62
45523;BME280;31254;51.680;5.394;2022-12-29T13:43:01;100470.56;;;10.64;84.69
45523;BME280;31254;51.680;5.394;2022-12-29T13:45:31;100468.31;;;10.59;84.38
45523;BME280;31254;51.680;5.394;2022-12-29T13:50:37;100471.44;;;10.46;84.92
45523;BME280;31254;51.680;5.394;2022-12-29T13:53:22;100470.91;;;10.42;85.37
45523;BME280;31254;51.680;5.394;2022-12-29T13:58:38;100470.75;;;10.44;85.52
45523;BME280;31254;51.680;5.394;2022-12-29T14:01:12;100470.75;;;10.44;85.59
45523;BME280;31254;51.680;5.394;2022-12-29T14:03:51;100473.31;;;10.46;85.71
45523;BME280;31254;51.680;5.394;2022-12-29T14:08:51;100457.97;;;10.45;86.21
45523;BME280;31254;51.680;5.394;2022-12-29T14:11:29;100468.03;;;10.44;86.39
45523;BME280;31254;51.680;5.394;2022-12-29T14:13:58;100478.47;;;10.49;86.53
45523;BME280;31254;51.680;5.394;2022-12-29T14:16:32;100468.19;;;10.42;86.55
45523;BME280;31254;51.680;5.394;2022-12-29T14:19:22;100477.63;;;10.48;86.48
45523;BME280;31254;51.680;5.394;2022-12-29T14:22:13;100482.34;;;10.46;86.83
45523;BME280;31254;51.680;5.394;2022-12-29T14:24:44;100482.50;;;10.45;86.58
45523;BME280;31254;51.680;5.394;2022-12-29T14:34:47;100471.06;;;10.41;86.93
45523;BME280;31254;51.680;5.394;2022-12-29T14:37:29;100479.72;;;10.36;87.24
45523;BME280;31254;51.680;5.394;2022-12-29T14:42:41;100477.03;;;10.27;87.04
45523;BME280;31254;51.680;5.394;2022-12-29T14:47:38;100491.72;;;10.25;87.42
45523;BME280;31254;51.680;5.394;2022-12-29T14:50:12;100498.00;;;10.26;87.39
45523;BME280;31254;51.680;5.394;2022-12-29T14:52:48;100502.91;;;10.22;87.44
45523;BME280;31254;51.680;5.394;2022-12-29T14:58:19;100494.81;;;10.13;87.33
45523;BME280;31254;51.680;5.394;2022-12-29T15:00:47;100512.56;;;10.17;87.77
45523;BME280;31254;51.680;5.394;2022-12-29T15:03:22;100509.44;;;10.12;87.71
45523;BME280;31254;51.680;5.394;2022-12-29T15:06:05;100517.47;;;10.13;87.88
45523;BME280;31254;51.680;5.394;2022-12-29T15:08:39;100501.72;;;10.07;87.59
45523;BME280;31254;51.680;5.394;2022-12-29T15:11:19;100496.28;;;10.07;87.97
45523;BME280;31254;51.680;5.394;2022-12-29T15:13:47;100502.63;;;10.07;87.82
45523;BME280;31254;51.680;5.394;2022-12-29T15:16:30;100495.91;;;10.02;88.51
45523;BME280;31254;51.680;5.394;2022-12-29T15:18:58;100501.97;;;9.96;88.46
45523;BME280;31254;51.680;5.394;2022-12-29T15:21:30;100505.56;;;9.96;88.75
45523;BME280;31254;51.680;5.394;2022-12-29T15:23:57;100505.63;;;9.86;88.84
45523;BME280;31254;51.680;5.394;2022-12-29T15:26:36;100501.94;;;9.78;88.94
45523;BME280;31254;51.680;5.394;2022-12-29T15:29:04;100500.56;;;9.74;89.02
45523;BME280;31254;51.680;5.394;2022-12-29T15:31:31;100511.75;;;9.70;89.23
45523;BME280;31254;51.680;5.394;2022-12-29T15:34:11;100516.47;;;9.68;89.65
45523;BME280;31254;51.680;5.394;2022-12-29T15:36:40;100523.09;;;9.66;89.68